createdAt,value
2022-11-25T00:01:10.094Z,100819.25
2022-11-25T00:03:37.676Z,100808.78
2022-11-25T00:06:20.741Z,100820.00
2022-11-25T00:08:50.114Z,100818.16
2022-11-25T00:11:18.046Z,100811.19
2022-11-25T00:13:46.401Z,100806.88
2022-11-25T00:16:16.052Z,100809.31
2022-11-25T00:18:48.831Z,100803.28
2022-11-25T00:21:19.205Z,100801.53
2022-11-25T00:23:53.166Z,100793.75
2022-11-25T00:26:21.204Z,100791.13
2022-11-25T00:28:48.718Z,100787.66
2022-11-25T00:31:21.570Z,100786.72
2022-11-25T00:33:50.092Z,100799.72
2022-11-25T00:36:21.064Z,100791.13
2022-11-25T00:38:52.601Z,100791.94
2022-11-25T00:41:39.187Z,100791.94
2022-11-25T00:44:25.364Z,100785.91
2022-11-25T00:46:53.332Z,100795.38
2022-11-25T00:49:20.472Z,100795.38
2022-11-25T00:51:47.483Z,100797.00
2022-11-25T00:54:14.743Z,100771.97
2022-11-25T00:56:42.043Z,100774.50
2022-11-25T00:59:09.287Z,100783.22
2022-11-25T01:01:37.244Z,100781.50
2022-11-25T01:04:05.057Z,100778.09
2022-11-25T01:06:32.119Z,100781.50
2022-11-25T01:08:59.092Z,100775.50
2022-11-25T01:11:26.199Z,100777.19
2022-11-25T01:14:00.888Z,100771.13
2022-11-25T01:16:30.189Z,100774.56
2022-11-25T01:18:59.807Z,100777.13
2022-11-25T01:21:30.021Z,100777.13
2022-11-25T01:23:59.772Z,100778.81
2022-11-25T01:26:27.584Z,100774.47
2022-11-25T01:29:03.058Z,100772.81
2022-11-25T01:31:33.358Z,100772.81
2022-11-25T01:34:06.823Z,100778.88
2022-11-25T01:36:34.291Z,100784.19
2022-11-25T01:39:01.342Z,100782.44
2022-11-25T01:41:31.734Z,100786.75
2022-11-25T01:44:17.042Z,100786.78
2022-11-25T01:46:46.783Z,100795.44
2022-11-25T01:49:33.938Z,100785.78
2022-11-25T01:52:14.202Z,100801.47
2022-11-25T01:54:55.993Z,100796.25
2022-11-25T01:57:38.080Z,100798.84
2022-11-25T02:00:07.831Z,100801.31
2022-11-25T02:02:34.980Z,100814.34
2022-11-25T02:05:06.829Z,100812.59
2022-11-25T02:07:43.389Z,100812.63
2022-11-25T02:10:14.511Z,100810.91
2022-11-25T02:12:43.775Z,100817.03
2022-11-25T02:15:11.697Z,100812.59
2022-11-25T02:17:38.769Z,100817.94
2022-11-25T02:20:12.262Z,100811.91
2022-11-25T02:23:12.587Z,100817.97
2022-11-25T02:25:42.484Z,100814.47
2022-11-25T02:28:13.401Z,100816.28
2022-11-25T02:30:40.981Z,100816.34
2022-11-25T02:33:08.245Z,100827.56
2022-11-25T02:35:36.952Z,100816.50
2022-11-25T02:38:15.372Z,100813.97
2022-11-25T02:40:45.967Z,100818.31
2022-11-25T02:43:13.709Z,100814.97
2022-11-25T02:45:50.633Z,100810.75
2022-11-25T02:48:17.641Z,100811.66
2022-11-25T02:50:44.962Z,100796.94
2022-11-25T02:53:12.056Z,100791.97
2022-11-25T02:55:39.081Z,100781.72
2022-11-25T02:58:06.414Z,100777.56
2022-11-25T03:00:33.825Z,100774.19
2022-11-25T03:03:01.204Z,100798.28
2022-11-25T03:05:28.271Z,100812.88
2022-11-25T03:07:55.502Z,100813.81
2022-11-25T03:10:23.567Z,100816.38
2022-11-25T03:12:50.672Z,100813.81
2022-11-25T03:15:18.305Z,100813.00
2022-11-25T03:17:45.542Z,100813.84
2022-11-25T03:20:14.435Z,100819.97
2022-11-25T03:22:44.818Z,100817.47
2022-11-25T03:25:14.009Z,100809.78
2022-11-25T03:27:41.615Z,100805.50
2022-11-25T03:30:12.734Z,100802.09
2022-11-25T03:32:39.844Z,100809.78
2022-11-25T03:35:07.722Z,100820.19
2022-11-25T03:37:35.020Z,100819.28
2022-11-25T03:40:02.534Z,100819.25
2022-11-25T03:42:29.569Z,100823.59
2022-11-25T03:44:56.656Z,100838.25
2022-11-25T03:47:24.315Z,100839.09
2022-11-25T03:49:51.571Z,100830.47
2022-11-25T03:52:18.718Z,100829.59
2022-11-25T03:54:45.838Z,100816.50
2022-11-25T03:57:12.905Z,100834.75
2022-11-25T03:59:40.001Z,100827.84
2022-11-25T04:02:07.114Z,100831.31
2022-11-25T04:04:34.641Z,100836.47
2022-11-25T04:07:01.946Z,100842.47
2022-11-25T04:09:28.977Z,100842.47
2022-11-25T04:12:14.794Z,100831.31
2022-11-25T04:14:41.797Z,100836.31
2022-11-25T04:17:08.924Z,100848.44
2022-11-25T04:19:35.977Z,100848.41
2022-11-25T04:22:03.385Z,100852.69
2022-11-25T04:24:30.414Z,100856.09
2022-11-25T04:26:57.497Z,100862.06
2022-11-25T04:29:24.564Z,100855.00
2022-11-25T04:31:51.636Z,100869.66
2022-11-25T04:34:18.682Z,100860.97
2022-11-25T04:36:45.708Z,100876.53
2022-11-25T04:39:12.797Z,100863.47
2022-11-25T04:41:39.807Z,100878.94
2022-11-25T04:44:06.971Z,100878.91
2022-11-25T04:46:39.919Z,100886.53
2022-11-25T04:49:06.948Z,100885.53
2022-11-25T04:51:34.082Z,100884.69
2022-11-25T04:54:01.105Z,100888.06
2022-11-25T04:56:28.205Z,100885.44
2022-11-25T04:59:14.221Z,100891.31
2022-11-25T05:01:41.341Z,100894.63
2022-11-25T05:04:08.430Z,100891.00
2022-11-25T05:06:35.488Z,100903.94
2022-11-25T05:09:04.554Z,100906.41
2022-11-25T05:11:31.629Z,100906.28
2022-11-25T05:13:58.676Z,100918.16
2022-11-25T05:16:25.979Z,100926.66
2022-11-25T05:18:56.621Z,100940.25
2022-11-25T05:21:24.027Z,100929.84
2022-11-25T05:23:55.666Z,100928.84
2022-11-25T05:26:24.000Z,100928.81
2022-11-25T05:28:51.087Z,100933.84
2022-11-25T05:31:18.324Z,100931.16
2022-11-25T05:33:45.518Z,100931.09
2022-11-25T05:36:12.653Z,100940.53
2022-11-25T05:38:39.636Z,100945.50
2022-11-25T05:41:08.077Z,100940.22
2022-11-25T05:43:35.071Z,100946.13
2022-11-25T05:46:06.490Z,100940.00
2022-11-25T05:48:33.911Z,100946.78
2022-11-25T05:51:02.171Z,100944.06
2022-11-25T05:53:29.573Z,100948.31
2022-11-25T05:56:00.867Z,100955.09
2022-11-25T05:58:31.675Z,100956.59
2022-11-25T06:00:58.752Z,100967.69
2022-11-25T06:03:29.540Z,100962.41
2022-11-25T06:05:57.781Z,100962.38
2022-11-25T06:08:26.397Z,100948.38
2022-11-25T06:10:54.142Z,100971.69
2022-11-25T06:13:21.791Z,100970.03
2022-11-25T06:15:48.991Z,100978.56
2022-11-25T06:18:18.211Z,100981.22
2022-11-25T06:20:45.531Z,100973.50
2022-11-25T06:23:12.604Z,100971.81
2022-11-25T06:25:39.590Z,100976.06
2022-11-25T06:28:13.889Z,100985.63
2022-11-25T06:30:40.959Z,100989.88
2022-11-25T06:33:08.039Z,100982.97
2022-11-25T06:35:36.092Z,100990.69
2022-11-25T06:38:03.360Z,100994.97
2022-11-25T06:40:30.464Z,100996.63
2022-11-25T06:42:59.745Z,101001.69
2022-11-25T06:45:26.849Z,101000.78
2022-11-25T06:47:53.977Z,101009.34
2022-11-25T06:50:21.126Z,101005.66
2022-11-25T06:52:48.296Z,101015.22
2022-11-25T06:55:15.382Z,101034.03
2022-11-25T06:57:42.451Z,101039.13
2022-11-25T07:00:09.854Z,101042.50
2022-11-25T07:02:42.931Z,101038.13
2022-11-25T07:05:12.497Z,101036.53
2022-11-25T07:07:39.586Z,101042.50
2022-11-25T07:10:07.435Z,101045.81
2022-11-25T07:12:34.520Z,101050.97
2022-11-25T07:15:01.672Z,101050.97
2022-11-25T07:17:28.771Z,101064.72
2022-11-25T07:19:55.885Z,101067.19
2022-11-25T07:22:22.963Z,101073.16
2022-11-25T07:24:49.944Z,101067.09
2022-11-25T07:27:17.222Z,101074.66
2022-11-25T07:30:03.523Z,101068.53
2022-11-25T07:32:33.404Z,101082.31
2022-11-25T07:35:00.411Z,101077.94
2022-11-25T07:37:27.693Z,101081.31
2022-11-25T07:39:55.043Z,101085.66
2022-11-25T07:42:22.262Z,101084.75
2022-11-25T07:44:49.314Z,101083.78
2022-11-25T07:47:16.296Z,101094.06
2022-11-25T07:49:43.326Z,101086.91
2022-11-25T07:52:10.349Z,101107.06
2022-11-25T07:54:37.423Z,101105.38
2022-11-25T07:57:04.520Z,101092.19
2022-11-25T07:59:31.768Z,101102.53
2022-11-25T08:01:58.848Z,101116.53
2022-11-25T08:04:25.997Z,101122.53
2022-11-25T08:06:53.764Z,101125.91
2022-11-25T08:09:24.066Z,101122.63
2022-11-25T08:11:52.067Z,101130.41
2022-11-25T08:14:19.649Z,101123.50
2022-11-25T08:16:46.817Z,101130.41
2022-11-25T08:19:15.927Z,101126.06
2022-11-25T08:21:43.315Z,101138.09
2022-11-25T08:24:15.949Z,101146.94
2022-11-25T08:26:43.120Z,101157.28
2022-11-25T08:29:16.914Z,101156.41
2022-11-25T08:31:43.909Z,101164.19
2022-11-25T08:34:17.848Z,101168.63
2022-11-25T08:36:48.292Z,101163.44
2022-11-25T08:39:44.414Z,101166.19
2022-11-25T08:42:05.424Z,101167.19
2022-11-25T08:44:32.555Z,101178.44
2022-11-25T08:46:59.734Z,101177.72
2022-11-25T08:49:26.994Z,101183.06
2022-11-25T08:51:54.098Z,101173.59
2022-11-25T08:54:21.126Z,101190.25
2022-11-25T08:56:48.257Z,101182.63
2022-11-25T08:59:15.331Z,101184.44
2022-11-25T09:01:42.583Z,101185.34
2022-11-25T09:04:09.696Z,101184.53
2022-11-25T09:06:38.637Z,101195.00
2022-11-25T09:09:06.694Z,101188.25
2022-11-25T09:11:33.909Z,101202.16
2022-11-25T09:14:01.032Z,101204.91
2022-11-25T09:16:28.468Z,101202.28
2022-11-25T09:18:56.440Z,101219.84
2022-11-25T09:21:25.367Z,101209.31
2022-11-25T09:23:54.964Z,101221.59
2022-11-25T09:26:28.098Z,101216.72
2022-11-25T09:28:56.055Z,101229.69
2022-11-25T09:31:24.098Z,101230.81
2022-11-25T09:33:51.287Z,101230.03
2022-11-25T09:36:20.063Z,101238.00
2022-11-25T09:38:47.231Z,101244.09
2022-11-25T09:42:16.206Z,101243.38
2022-11-25T09:45:07.563Z,101254.75
2022-11-25T09:47:45.173Z,101254.84
2022-11-25T09:50:39.562Z,101254.16
2022-11-25T09:53:44.441Z,101257.75
2022-11-25T09:56:25.577Z,101269.03
2022-11-25T09:58:59.505Z,101269.13
2022-11-25T10:01:30.749Z,101271.84
2022-11-25T10:04:13.673Z,101276.22
2022-11-25T10:06:55.071Z,101269.31
2022-11-25T10:09:26.604Z,101272.19
2022-11-25T10:12:01.298Z,101290.31
2022-11-25T10:14:42.724Z,101278.38
2022-11-25T10:17:18.419Z,101291.47
2022-11-25T10:20:05.286Z,101289.97
2022-11-25T10:22:36.345Z,101294.38
2022-11-25T10:25:22.096Z,101285.06
2022-11-25T10:27:52.046Z,101294.72
2022-11-25T10:30:35.052Z,101303.53
2022-11-25T10:33:06.698Z,101294.13
2022-11-25T10:35:39.121Z,101300.44
2022-11-25T10:38:17.362Z,101301.34
2022-11-25T10:40:50.098Z,101301.56
2022-11-25T10:43:17.166Z,101301.72
2022-11-25T10:45:56.498Z,101309.75
2022-11-25T10:48:45.579Z,101320.28
2022-11-25T10:51:27.053Z,101331.75
2022-11-25T10:54:12.358Z,101332.84
2022-11-25T10:56:51.833Z,101335.56
2022-11-25T10:59:31.354Z,101332.25
2022-11-25T11:02:30.675Z,101334.28
2022-11-25T11:04:59.663Z,101344.72
2022-11-25T11:07:30.766Z,101339.69
2022-11-25T11:10:15.912Z,101348.66
2022-11-25T11:12:59.275Z,101353.13
2022-11-25T11:15:28.175Z,101349.00
2022-11-25T11:17:57.159Z,101359.66
2022-11-25T11:20:31.612Z,101369.97
2022-11-25T11:23:12.409Z,101377.97
2022-11-25T11:25:42.129Z,101373.81
2022-11-25T11:28:36.720Z,101380.94
2022-11-25T11:31:27.153Z,101384.56
2022-11-25T11:34:05.631Z,101389.88
2022-11-25T11:36:36.797Z,101389.25
2022-11-25T11:39:19.696Z,101389.34
2022-11-25T11:42:09.480Z,101395.47
2022-11-25T11:44:58.721Z,101402.50
2022-11-25T11:47:37.031Z,101406.94
2022-11-25T11:50:18.194Z,101406.16
2022-11-25T11:52:57.072Z,101414.13
2022-11-25T11:55:38.825Z,101413.38
2022-11-25T11:58:42.720Z,101413.38
2022-11-25T12:01:38.588Z,101409.16
2022-11-25T12:04:21.380Z,101411.81
2022-11-25T12:07:16.634Z,101411.81
2022-11-25T12:10:17.197Z,101418.03
2022-11-25T12:12:55.104Z,101437.13
2022-11-25T12:15:54.183Z,101430.34
2022-11-25T12:18:35.047Z,101435.66
2022-11-25T12:21:23.888Z,101434.78
2022-11-25T12:24:04.010Z,101430.59
2022-11-25T12:26:43.320Z,101451.78
2022-11-25T12:29:20.052Z,101441.63
2022-11-25T12:31:56.360Z,101451.28
2022-11-25T12:34:37.240Z,101447.03
2022-11-25T12:37:14.847Z,101454.06
2022-11-25T12:40:03.352Z,101465.53
2022-11-25T12:42:32.467Z,101456.91
2022-11-25T12:45:16.224Z,101463.88
2022-11-25T12:47:44.942Z,101469.72
2022-11-25T12:51:02.619Z,101475.59
2022-11-25T12:53:47.262Z,101479.63
2022-11-25T12:56:22.686Z,101484.56
2022-11-25T12:59:13.996Z,101483.69
2022-11-25T13:01:56.909Z,101478.50
2022-11-25T13:04:26.736Z,101480.22
2022-11-25T13:07:18.997Z,101493.19
2022-11-25T13:10:32.436Z,101495.91
2022-11-25T13:13:04.664Z,101502.91
2022-11-25T13:15:38.976Z,101499.38
2022-11-25T13:18:22.989Z,101502.91
2022-11-25T13:20:52.613Z,101510.63
2022-11-25T13:23:19.654Z,101513.22
2022-11-25T13:25:49.473Z,101504.50
2022-11-25T13:28:33.113Z,101515.84
2022-11-25T13:31:22.673Z,101516.75
2022-11-25T13:33:49.692Z,101520.31
2022-11-25T13:36:25.500Z,101527.94
2022-11-25T13:38:52.483Z,101530.63
2022-11-25T13:41:32.065Z,101535.88
2022-11-25T13:44:32.560Z,101524.63
2022-11-25T13:47:20.478Z,101529.81
2022-11-25T13:49:52.317Z,101534.19
2022-11-25T13:52:31.248Z,101541.88
2022-11-25T13:54:59.374Z,101545.41
2022-11-25T13:57:35.397Z,101549.63
2022-11-25T14:00:34.162Z,101554.06
2022-11-25T14:03:19.317Z,101563.50
2022-11-25T14:05:49.399Z,101565.16
2022-11-25T14:08:39.322Z,101561.75
2022-11-25T14:11:32.945Z,101568.59
2022-11-25T14:14:23.919Z,101562.38
2022-11-25T14:17:28.604Z,101565.78
2022-11-25T14:19:55.709Z,101586.59
2022-11-25T14:22:47.241Z,101583.03
2022-11-25T14:25:17.104Z,101593.38
2022-11-25T14:27:51.551Z,101599.41
2022-11-25T14:30:19.038Z,101593.50
2022-11-25T14:32:56.915Z,101604.81
2022-11-25T14:35:33.794Z,101593.22
2022-11-25T14:38:10.976Z,101600.59
2022-11-25T14:40:54.650Z,101616.66
2022-11-25T14:43:23.064Z,101620.59
2022-11-25T14:46:09.205Z,101625.41
2022-11-25T14:48:36.864Z,101632.03
2022-11-25T14:51:09.751Z,101628.34
2022-11-25T14:53:48.087Z,101643.84
2022-11-25T14:56:22.611Z,101642.00
2022-11-25T14:58:52.300Z,101659.22
2022-11-25T15:01:27.815Z,101663.09
2022-11-25T15:04:13.204Z,101661.28
2022-11-25T15:06:42.722Z,101675.78
2022-11-25T15:09:28.416Z,101670.47
2022-11-25T15:12:02.531Z,101678.22
2022-11-25T15:14:36.107Z,101681.44
2022-11-25T15:17:22.433Z,101683.84
2022-11-25T15:19:49.496Z,101687.97
2022-11-25T15:22:24.291Z,101686.06
2022-11-25T15:25:05.724Z,101683.06
2022-11-25T15:27:33.124Z,101695.81
2022-11-25T15:30:00.433Z,101708.66
2022-11-25T15:32:37.890Z,101711.69
2022-11-25T15:35:07.292Z,101712.28
2022-11-25T15:37:34.511Z,101719.06
2022-11-25T15:40:29.532Z,101724.09
2022-11-25T15:42:59.448Z,101734.31
2022-11-25T15:45:34.747Z,101739.38
2022-11-25T15:48:03.503Z,101739.91
2022-11-25T15:50:32.548Z,101752.00
2022-11-25T15:53:00.570Z,101744.03
2022-11-25T15:55:31.635Z,101760.44
2022-11-25T15:58:04.465Z,101766.34
2022-11-25T16:00:31.589Z,101774.78
2022-11-25T16:02:59.544Z,101770.13
2022-11-25T16:05:28.580Z,101783.06
2022-11-25T16:07:55.625Z,101789.84
2022-11-25T16:10:22.612Z,101792.22
2022-11-25T16:13:21.906Z,101791.22
2022-11-25T16:16:07.588Z,101802.28
2022-11-25T16:18:42.938Z,101802.19
2022-11-25T16:21:19.823Z,101815.72
2022-11-25T16:23:55.158Z,101806.84
2022-11-25T16:26:32.597Z,101809.41
2022-11-25T16:29:01.867Z,101816.97
2022-11-25T16:31:29.018Z,101825.34
2022-11-25T16:34:01.720Z,101834.50
2022-11-25T16:36:28.810Z,101824.56
2022-11-25T16:38:56.036Z,101829.69
2022-11-25T16:41:26.979Z,101838.78
2022-11-25T16:43:57.123Z,101823.75
2022-11-25T16:46:28.157Z,101851.34
2022-11-25T16:48:55.435Z,101846.81
2022-11-25T16:51:24.441Z,101862.97
2022-11-25T16:53:51.442Z,101868.00
2022-11-25T16:56:25.579Z,101870.53
2022-11-25T16:58:52.838Z,101873.69
2022-11-25T17:01:22.830Z,101877.88
2022-11-25T17:03:49.994Z,101891.41
2022-11-25T17:06:22.712Z,101895.59
2022-11-25T17:08:50.715Z,101901.56
2022-11-25T17:11:46.313Z,101898.91
2022-11-25T17:14:21.512Z,101909.06
2022-11-25T17:16:48.681Z,101913.34
2022-11-25T17:19:17.031Z,101916.78
2022-11-25T17:21:44.531Z,101909.50
2022-11-25T17:24:23.281Z,101926.84
2022-11-25T17:26:55.708Z,101936.22
2022-11-25T17:29:31.571Z,101929.19
2022-11-25T17:31:59.006Z,101942.16
2022-11-25T17:34:26.575Z,101933.19
2022-11-25T17:36:53.813Z,101947.16
2022-11-25T17:39:21.092Z,101954.72
2022-11-25T17:41:50.791Z,101952.75
2022-11-25T17:44:28.004Z,101970.16
2022-11-25T17:46:57.377Z,101970.81
2022-11-25T17:49:25.571Z,101971.63
2022-11-25T17:51:53.295Z,101975.81
2022-11-25T17:54:20.337Z,101983.31
2022-11-25T17:56:52.344Z,101983.16
2022-11-25T17:59:28.652Z,101984.69
2022-11-25T18:01:56.164Z,101982.91
2022-11-25T18:04:24.521Z,101985.31
2022-11-25T18:06:51.768Z,101983.66
2022-11-25T18:09:19.318Z,101980.91
2022-11-25T18:11:52.575Z,101998.28
2022-11-25T18:14:23.450Z,102004.16
2022-11-25T18:16:50.722Z,102002.88
2022-11-25T18:19:18.467Z,102019.59
2022-11-25T18:21:45.523Z,102012.25
2022-11-25T18:24:12.591Z,102020.88
2022-11-25T18:26:47.263Z,102008.41
2022-11-25T18:29:18.973Z,102018.00
2022-11-25T18:31:47.290Z,102022.22
2022-11-25T18:34:15.930Z,102036.00
2022-11-25T18:36:43.746Z,102036.69
2022-11-25T18:39:11.638Z,102046.09
2022-11-25T18:41:40.143Z,102042.66
2022-11-25T18:44:37.290Z,102041.63
2022-11-25T18:47:05.752Z,102043.94
2022-11-25T18:49:32.768Z,102050.59
2022-11-25T18:51:59.773Z,102054.59
2022-11-25T18:54:27.534Z,102054.97
2022-11-25T18:56:55.257Z,102055.69
2022-11-25T18:59:37.174Z,102056.22
2022-11-25T19:02:14.496Z,102061.31
2022-11-25T19:04:41.765Z,102053.06
2022-11-25T19:07:08.783Z,102063.53
2022-11-25T19:09:36.101Z,102072.66
2022-11-25T19:12:03.540Z,102077.72
2022-11-25T19:14:35.257Z,102085.13
2022-11-25T19:17:07.856Z,102083.81
2022-11-25T19:19:37.648Z,102096.84
2022-11-25T19:22:15.622Z,102093.22
2022-11-25T19:24:42.755Z,102100.22
2022-11-25T19:27:23.342Z,102106.22
2022-11-25T19:29:51.996Z,102106.78
2022-11-25T19:32:23.053Z,102111.00
2022-11-25T19:35:11.698Z,102119.63
2022-11-25T19:37:38.982Z,102121.28
2022-11-25T19:40:13.671Z,102115.88
2022-11-25T19:42:40.699Z,102117.91
2022-11-25T19:45:11.760Z,102111.44
2022-11-25T19:47:39.187Z,102132.19
2022-11-25T19:50:06.981Z,102130.25
2022-11-25T19:52:37.685Z,102137.75
2022-11-25T19:55:25.770Z,102143.75
2022-11-25T19:57:53.072Z,102137.56
2022-11-25T20:00:21.987Z,102145.25
2022-11-25T20:02:52.118Z,102146.25
2022-11-25T20:05:24.183Z,102148.81
2022-11-25T20:07:51.221Z,102155.09
2022-11-25T20:10:24.309Z,102155.94
2022-11-25T20:12:52.517Z,102151.59
2022-11-25T20:15:19.930Z,102160.78
2022-11-25T20:17:50.171Z,102148.25
2022-11-25T20:20:24.066Z,102166.53
2022-11-25T20:22:59.465Z,102169.00
2022-11-25T20:25:27.690Z,102177.50
2022-11-25T20:27:55.469Z,102175.16
2022-11-25T20:30:28.776Z,102195.03
2022-11-25T20:32:55.836Z,102187.84
2022-11-25T20:35:25.388Z,102193.06
2022-11-25T20:37:57.780Z,102191.09
2022-11-25T20:40:32.911Z,102194.63
2022-11-25T20:43:00.287Z,102210.94
2022-11-25T20:45:27.446Z,102214.22
2022-11-25T20:47:55.058Z,102213.94
2022-11-25T20:50:22.603Z,102220.56
2022-11-25T20:52:50.630Z,102229.75
2022-11-25T20:55:21.840Z,102226.19
2022-11-25T20:57:49.749Z,102232.91
2022-11-25T21:01:19.329Z,102230.25
2022-11-25T21:03:48.026Z,102230.25
2022-11-25T21:06:18.594Z,102244.78
2022-11-25T21:08:48.938Z,102242.09
2022-11-25T21:11:17.121Z,102242.00
2022-11-25T21:13:44.315Z,102249.63
2022-11-25T21:16:11.828Z,102245.28
2022-11-25T21:18:41.106Z,102245.16
2022-11-25T21:21:17.378Z,102263.13
2022-11-25T21:23:46.643Z,102263.13
2022-11-25T21:26:19.518Z,102264.72
2022-11-25T21:28:48.631Z,102264.34
2022-11-25T21:31:25.609Z,102277.97
2022-11-25T21:33:58.973Z,102276.19
2022-11-25T21:36:29.315Z,102290.59
2022-11-25T21:39:03.098Z,102298.97
2022-11-25T21:41:29.971Z,102301.53
2022-11-25T21:43:57.178Z,102303.13
2022-11-25T21:46:25.703Z,102302.13
2022-11-25T21:48:52.992Z,102307.94
2022-11-25T21:51:24.419Z,102307.56
2022-11-25T21:53:52.815Z,102305.78
2022-11-25T21:56:27.975Z,102314.38
2022-11-25T21:58:55.731Z,102317.63
2022-11-25T22:01:23.833Z,102309.50
2022-11-25T22:03:51.236Z,102315.53
2022-11-25T22:06:22.258Z,102320.78
2022-11-25T22:08:50.055Z,102316.13
2022-11-25T22:11:21.923Z,102311.78
2022-11-25T22:13:49.571Z,102333.28
2022-11-25T22:16:21.363Z,102323.63
2022-11-25T22:18:48.630Z,102325.19
2022-11-25T22:21:15.718Z,102323.31
2022-11-25T22:23:43.341Z,102333.97
2022-11-25T22:26:20.423Z,102331.50
2022-11-25T22:28:51.635Z,102336.63
2022-11-25T22:31:20.482Z,102340.88
2022-11-25T22:33:48.692Z,102337.31
2022-11-25T22:36:30.182Z,102343.25
2022-11-25T22:39:09.113Z,102345.72
2022-11-25T22:41:36.136Z,102349.75
2022-11-25T22:44:03.115Z,102352.31
2022-11-25T22:46:33.171Z,102347.97
2022-11-25T22:49:00.238Z,102353.88
2022-11-25T22:51:27.533Z,102357.13
2022-11-25T22:53:54.656Z,102357.22
2022-11-25T22:56:21.685Z,102355.25
2022-11-25T22:58:48.805Z,102363.94
2022-11-25T23:01:17.208Z,102366.28
2022-11-25T23:03:44.790Z,102366.19
2022-11-25T23:06:12.954Z,102371.44
2022-11-25T23:08:40.404Z,102374.78
2022-11-25T23:11:21.127Z,102370.44
2022-11-25T23:13:51.214Z,102376.34
2022-11-25T23:16:21.136Z,102383.16
2022-11-25T23:18:48.398Z,102384.84
2022-11-25T23:21:22.085Z,102384.63
2022-11-25T23:23:50.217Z,102392.31
2022-11-25T23:26:18.188Z,102398.13
2022-11-25T23:28:45.498Z,102388.94
2022-11-25T23:31:17.115Z,102401.06
2022-11-25T23:33:48.087Z,102407.28
2022-11-25T23:36:28.381Z,102413.28
2022-11-25T23:39:03.534Z,102410.31
2022-11-25T23:41:34.414Z,102419.00
2022-11-25T23:44:10.816Z,102419.78
2022-11-25T23:46:37.931Z,102420.47
2022-11-25T23:49:10.954Z,102422.03
2022-11-25T23:51:38.012Z,102427.38
2022-11-25T23:54:05.113Z,102428.16
2022-11-25T23:56:32.150Z,102416.03
2022-11-25T23:58:59.517Z,102420.34
